createdAt,value
2022-10-05T00:00:11.286Z,0
2022-10-05T00:01:11.895Z,0
2022-10-05T00:02:12.590Z,0
2022-10-05T00:03:13.148Z,0
2022-10-05T00:04:13.807Z,0
2022-10-05T00:05:14.482Z,0
2022-10-05T00:06:15.040Z,0
2022-10-05T00:07:15.635Z,0
2022-10-05T00:08:16.229Z,0
2022-10-05T00:09:16.823Z,0
2022-10-05T00:10:17.415Z,0
2022-10-05T00:11:18.009Z,0
2022-10-05T00:12:18.604Z,0
2022-10-05T00:13:19.198Z,0
2022-10-05T00:14:19.788Z,0
2022-10-05T00:15:20.383Z,0
2022-10-05T00:16:21.044Z,0
2022-10-05T00:17:21.615Z,0
2022-10-05T00:18:22.207Z,0
2022-10-05T00:19:22.800Z,0
2022-10-05T00:20:23.391Z,0
2022-10-05T00:21:23.996Z,0
2022-10-05T00:22:24.582Z,0
2022-10-05T00:23:25.174Z,0
2022-10-05T00:24:25.764Z,0
2022-10-05T00:25:26.359Z,0
2022-10-05T00:26:26.953Z,0
2022-10-05T00:27:27.546Z,0
2022-10-05T00:28:28.229Z,0
2022-10-05T00:29:28.775Z,0
2022-10-05T00:30:29.368Z,0
2022-10-05T00:31:30.028Z,0
2022-10-05T00:32:30.586Z,0
2022-10-05T00:33:31.185Z,0
2022-10-05T00:34:31.776Z,0
2022-10-05T00:35:32.372Z,0
2022-10-05T00:36:32.965Z,0
2022-10-05T00:37:33.558Z,0
2022-10-05T00:38:34.155Z,0
2022-10-05T00:39:34.771Z,0
2022-10-05T00:40:35.364Z,0
2022-10-05T00:41:35.954Z,0
2022-10-05T00:42:36.545Z,0
2022-10-05T00:43:37.140Z,0
2022-10-05T00:44:37.733Z,0
2022-10-05T00:45:38.371Z,0
2022-10-05T00:46:38.939Z,0
2022-10-05T00:47:39.534Z,0
2022-10-05T00:48:40.129Z,0
2022-10-05T00:49:40.721Z,0
2022-10-05T00:50:41.311Z,0
2022-10-05T00:51:41.909Z,0
2022-10-05T00:52:42.498Z,0
2022-10-05T00:53:43.095Z,0
2022-10-05T00:54:43.686Z,0
2022-10-05T00:55:44.277Z,0
2022-10-05T00:56:45.165Z,0
2022-10-05T00:57:45.895Z,0
2022-10-05T00:58:46.508Z,0
2022-10-05T00:59:47.099Z,0
2022-10-05T01:00:47.715Z,0
2022-10-05T01:01:48.385Z,0
2022-10-05T01:02:49.031Z,0
2022-10-05T01:03:49.585Z,0
2022-10-05T01:04:50.179Z,0
2022-10-05T01:05:50.773Z,0
2022-10-05T01:06:51.364Z,0
2022-10-05T01:07:51.956Z,0
2022-10-05T01:08:52.552Z,0
2022-10-05T01:09:53.142Z,0
2022-10-05T01:10:53.738Z,0
2022-10-05T01:11:54.350Z,0
2022-10-05T01:12:54.948Z,0
2022-10-05T01:13:55.541Z,0
2022-10-05T01:14:56.152Z,0
2022-10-05T01:15:56.745Z,0
2022-10-05T01:16:57.415Z,0
2022-10-05T01:17:57.981Z,0
2022-10-05T01:18:58.580Z,0
2022-10-05T01:19:59.172Z,0
2022-10-05T01:20:59.770Z,0
2022-10-05T01:22:00.362Z,0
2022-10-05T01:23:00.956Z,0
2022-10-05T01:24:01.551Z,0
2022-10-05T01:25:02.167Z,0
2022-10-05T01:26:02.756Z,0
2022-10-05T01:27:03.347Z,0
2022-10-05T01:28:04.020Z,0
2022-10-05T01:29:04.598Z,0
2022-10-05T01:30:05.190Z,0
2022-10-05T01:31:05.808Z,0
2022-10-05T01:32:06.375Z,0
2022-10-05T01:33:06.969Z,0
2022-10-05T01:34:11.321Z,0
2022-10-05T01:35:09.149Z,0
2022-10-05T01:36:09.744Z,0
2022-10-05T01:37:10.340Z,0
2022-10-05T01:38:10.933Z,0
2022-10-05T01:39:11.524Z,0
2022-10-05T01:40:12.139Z,0
2022-10-05T01:41:12.732Z,0
2022-10-05T01:42:13.325Z,0
2022-10-05T01:43:13.919Z,0
2022-10-05T01:44:14.510Z,0
2022-10-05T01:45:15.108Z,0
2022-10-05T01:46:15.760Z,0
2022-10-05T01:47:16.326Z,0
2022-10-05T01:48:16.932Z,0
2022-10-05T01:49:17.527Z,0
2022-10-05T01:50:18.119Z,0
2022-10-05T01:51:18.717Z,0
2022-10-05T01:52:19.307Z,0
2022-10-05T01:53:19.903Z,0
2022-10-05T01:54:20.498Z,0
2022-10-05T01:55:21.092Z,0
2022-10-05T01:56:21.685Z,0
2022-10-05T01:57:22.279Z,0
2022-10-05T01:58:22.875Z,0
2022-10-05T01:59:23.486Z,0
2022-10-05T02:00:24.086Z,0
2022-10-05T02:01:24.731Z,0
2022-10-05T02:02:25.388Z,0
2022-10-05T02:03:25.950Z,0
2022-10-05T02:04:59.763Z,0
2022-10-05T02:05:28.132Z,0
2022-10-05T02:06:28.724Z,0
2022-10-05T02:07:29.320Z,0
2022-10-05T02:08:29.913Z,0
2022-10-05T02:09:30.507Z,0
2022-10-05T02:10:31.100Z,0
2022-10-05T02:11:31.697Z,0
2022-10-05T02:12:32.291Z,0
2022-10-05T02:13:32.883Z,0
2022-10-05T02:14:33.493Z,0
2022-10-05T02:15:34.156Z,0
2022-10-05T02:16:34.702Z,0
2022-10-05T02:17:35.306Z,0
2022-10-05T02:18:35.889Z,0
2022-10-05T02:19:36.483Z,0
2022-10-05T02:20:37.077Z,0
2022-10-05T02:21:37.670Z,0
2022-10-05T02:22:38.264Z,0
2022-10-05T02:23:38.861Z,0
2022-10-05T02:24:39.457Z,0
2022-10-05T02:25:40.047Z,0
2022-10-05T02:26:40.640Z,0
2022-10-05T02:27:41.253Z,0
2022-10-05T02:28:41.847Z,0
2022-10-05T02:29:42.440Z,0
2022-10-05T02:30:43.045Z,0
2022-10-05T02:31:43.689Z,0
2022-10-05T02:32:44.245Z,0
2022-10-05T02:33:44.837Z,0
2022-10-05T02:34:45.428Z,0
2022-10-05T02:35:46.024Z,0
2022-10-05T02:36:46.961Z,0
2022-10-05T02:37:47.711Z,0
2022-10-05T02:38:48.306Z,0
2022-10-05T02:39:48.901Z,0
2022-10-05T02:40:49.494Z,0
2022-10-05T02:41:50.087Z,0
2022-10-05T02:42:50.678Z,0
2022-10-05T02:43:51.292Z,0
2022-10-05T02:44:51.886Z,0
2022-10-05T02:45:52.539Z,0
2022-10-05T02:46:56.984Z,0
2022-10-05T02:47:54.675Z,0
2022-10-05T02:48:55.307Z,0
2022-10-05T02:49:55.893Z,0
2022-10-05T02:50:56.485Z,0
2022-10-05T02:51:57.080Z,0
2022-10-05T02:52:57.676Z,0
2022-10-05T02:53:58.287Z,0
2022-10-05T02:54:58.879Z,0
2022-10-05T02:55:59.476Z,0
2022-10-05T02:57:00.076Z,0
2022-10-05T02:58:00.660Z,0
2022-10-05T02:59:01.251Z,0
2022-10-05T03:00:01.920Z,0
2022-10-05T03:01:02.551Z,0
2022-10-05T03:02:03.191Z,0
2022-10-05T03:03:03.723Z,0
2022-10-05T03:04:04.314Z,0
2022-10-05T03:05:04.991Z,0
2022-10-05T03:06:05.525Z,0
2022-10-05T03:07:06.116Z,0
2022-10-05T03:08:06.711Z,0
2022-10-05T03:09:07.304Z,0
2022-10-05T03:10:07.900Z,0
2022-10-05T03:11:08.490Z,0
2022-10-05T03:12:09.084Z,0
2022-10-05T03:13:09.676Z,0
2022-10-05T03:14:10.272Z,0
2022-10-05T03:15:10.871Z,0
2022-10-05T03:16:11.507Z,0
2022-10-05T03:17:12.070Z,0
2022-10-05T03:18:12.664Z,0
2022-10-05T03:19:13.256Z,0
2022-10-05T03:20:13.850Z,0
2022-10-05T03:21:14.444Z,0
2022-10-05T03:22:15.038Z,0
2022-10-05T03:23:15.631Z,0
2022-10-05T03:24:16.226Z,0
2022-10-05T03:25:16.820Z,0
2022-10-05T03:26:17.413Z,0
2022-10-05T03:27:18.007Z,0
2022-10-05T03:28:18.662Z,0
2022-10-05T03:29:19.212Z,0
2022-10-05T03:30:19.808Z,0
2022-10-05T03:31:20.506Z,0
2022-10-05T03:32:21.086Z,0
2022-10-05T03:33:21.674Z,0
2022-10-05T03:34:22.270Z,0
2022-10-05T03:35:22.862Z,0
2022-10-05T03:36:23.455Z,0
2022-10-05T03:37:24.047Z,0
2022-10-05T03:38:24.641Z,0
2022-10-05T03:39:25.236Z,0
2022-10-05T03:40:25.832Z,0
2022-10-05T03:41:26.419Z,0
2022-10-05T03:42:27.034Z,0
2022-10-05T03:43:27.630Z,0
2022-10-05T03:44:28.223Z,0
2022-10-05T03:45:28.815Z,0
2022-10-05T03:46:29.452Z,0
2022-10-05T03:47:30.021Z,0
2022-10-05T03:48:30.615Z,0
2022-10-05T03:49:31.209Z,0
2022-10-05T03:50:31.800Z,0
2022-10-05T03:51:32.390Z,0
2022-10-05T03:52:32.986Z,0
2022-10-05T03:53:33.576Z,0
2022-10-05T03:54:34.171Z,0
2022-10-05T03:55:34.763Z,0
2022-10-05T03:56:35.361Z,0
2022-10-05T03:57:35.973Z,0
2022-10-05T03:58:36.585Z,0
2022-10-05T03:59:37.177Z,0
2022-10-05T04:00:37.774Z,0
2022-10-05T04:01:38.453Z,0
2022-10-05T04:02:39.099Z,0
2022-10-05T04:03:39.626Z,0
2022-10-05T04:04:40.219Z,0
2022-10-05T04:05:40.811Z,0
2022-10-05T04:06:41.407Z,0
2022-10-05T04:07:41.999Z,0
2022-10-05T04:08:47.463Z,0
2022-10-05T04:09:44.178Z,0
2022-10-05T04:10:44.774Z,0
2022-10-05T04:11:45.387Z,0
2022-10-05T04:12:45.989Z,0
2022-10-05T04:13:46.584Z,0
2022-10-05T04:14:47.177Z,0
2022-10-05T04:15:47.788Z,0
2022-10-05T04:16:48.748Z,0
2022-10-05T04:17:49.498Z,0
2022-10-05T04:18:50.090Z,0
2022-10-05T04:19:50.686Z,0
2022-10-05T04:20:51.284Z,0
2022-10-05T04:21:51.877Z,0
2022-10-05T04:22:52.467Z,0
2022-10-05T04:23:53.059Z,0
2022-10-05T04:24:53.656Z,0
2022-10-05T04:25:54.250Z,0
2022-10-05T04:26:54.850Z,0
2022-10-05T04:27:55.475Z,0
2022-10-05T04:28:56.037Z,0
2022-10-05T04:29:56.629Z,0
2022-10-05T04:30:57.255Z,0
2022-10-05T04:31:57.814Z,0
2022-10-05T04:32:58.409Z,0
2022-10-05T04:33:58.999Z,0
2022-10-05T04:34:59.594Z,0
2022-10-05T04:36:00.189Z,0
2022-10-05T04:37:00.786Z,0
2022-10-05T04:38:01.379Z,0
2022-10-05T04:39:01.972Z,0
2022-10-05T04:40:02.565Z,0
2022-10-05T04:41:03.158Z,0
2022-10-05T04:42:03.771Z,0
2022-10-05T04:43:04.364Z,0
2022-10-05T04:44:04.957Z,0
2022-10-05T04:45:05.549Z,0
2022-10-05T04:46:06.142Z,0
2022-10-05T04:47:06.769Z,0
2022-10-05T04:48:07.330Z,0
2022-10-05T04:49:07.925Z,0
2022-10-05T04:50:08.516Z,0
2022-10-05T04:51:09.113Z,0
2022-10-05T04:52:09.704Z,0
2022-10-05T04:53:10.299Z,0
2022-10-05T04:54:10.892Z,0
2022-10-05T04:55:11.484Z,0
2022-10-05T04:56:12.078Z,0
2022-10-05T04:57:12.772Z,0
2022-10-05T04:58:13.367Z,0
2022-10-05T04:59:13.960Z,0
2022-10-05T05:00:14.555Z,4
2022-10-05T05:01:15.201Z,4
2022-10-05T05:02:15.775Z,4
2022-10-05T05:03:16.373Z,4
2022-10-05T05:04:16.984Z,4
2022-10-05T05:05:17.579Z,8
2022-10-05T05:06:18.590Z,8
2022-10-05T05:07:19.221Z,12
2022-10-05T05:08:19.816Z,12
2022-10-05T05:09:20.411Z,16
2022-10-05T05:10:21.007Z,16
2022-10-05T05:11:24.599Z,24
2022-10-05T05:12:23.192Z,24
2022-10-05T05:13:23.784Z,32
2022-10-05T05:14:24.381Z,40
2022-10-05T05:15:24.995Z,44
2022-10-05T05:16:25.673Z,56
2022-10-05T05:17:26.204Z,64
2022-10-05T05:18:26.793Z,76
2022-10-05T05:19:27.387Z,88
2022-10-05T05:20:27.984Z,104
2022-10-05T05:21:28.580Z,116
2022-10-05T05:22:29.175Z,128
2022-10-05T05:23:29.768Z,148
2022-10-05T05:24:30.366Z,164
2022-10-05T05:25:30.959Z,188
2022-10-05T05:26:34.506Z,212
2022-10-05T05:27:33.145Z,240
2022-10-05T05:28:33.813Z,268
2022-10-05T05:29:34.410Z,296
2022-10-05T05:30:35.012Z,328
2022-10-05T05:31:35.663Z,364
2022-10-05T05:32:36.238Z,400
2022-10-05T05:33:36.836Z,444
2022-10-05T05:34:37.430Z,488
2022-10-05T05:35:38.026Z,532
2022-10-05T05:36:38.622Z,584
2022-10-05T05:37:39.219Z,636
2022-10-05T05:38:39.817Z,684
2022-10-05T05:39:40.416Z,740
2022-10-05T05:40:41.012Z,796
2022-10-05T05:41:41.608Z,852
2022-10-05T05:42:42.205Z,912
2022-10-05T05:43:42.805Z,972
2022-10-05T05:44:43.403Z,1032
2022-10-05T05:45:44.006Z,1096
2022-10-05T05:47:02.841Z,1160
2022-10-05T05:47:46.171Z,1240
2022-10-05T05:48:46.733Z,1324
2022-10-05T05:49:47.319Z,1388
2022-10-05T05:50:47.917Z,1416
2022-10-05T05:51:48.513Z,1460
2022-10-05T05:52:49.113Z,1524
2022-10-05T05:53:49.709Z,1588
2022-10-05T05:54:50.306Z,1648
2022-10-05T05:55:50.907Z,1708
2022-10-05T05:56:51.503Z,1768
2022-10-05T05:57:52.099Z,1816
2022-10-05T05:58:52.698Z,1888
2022-10-05T05:59:53.295Z,1960
2022-10-05T06:00:53.893Z,2076
2022-10-05T06:01:54.566Z,2192
2022-10-05T06:02:55.253Z,2300
2022-10-05T06:03:55.860Z,2376
2022-10-05T06:04:56.460Z,2536
2022-10-05T06:05:57.057Z,2860
2022-10-05T06:06:57.734Z,3176
2022-10-05T06:07:58.266Z,3312
2022-10-05T06:08:58.866Z,3412
2022-10-05T06:09:59.484Z,3620
2022-10-05T06:11:00.084Z,3868
2022-10-05T06:12:00.682Z,4140
2022-10-05T06:13:01.938Z,4376
2022-10-05T06:14:01.895Z,4652
2022-10-05T06:15:02.495Z,5008
2022-10-05T06:16:03.114Z,5372
2022-10-05T06:17:03.691Z,5712
2022-10-05T06:18:04.308Z,6120
2022-10-05T06:19:04.911Z,6576
2022-10-05T06:20:05.796Z,7016
2022-10-05T06:21:06.391Z,7532
2022-10-05T06:22:06.987Z,8080
2022-10-05T06:23:07.595Z,8652
2022-10-05T06:24:08.187Z,9196
2022-10-05T06:25:08.789Z,9720
2022-10-05T06:26:10.827Z,10148
2022-10-05T06:27:10.980Z,10484
2022-10-05T06:28:11.638Z,10632
2022-10-05T06:29:12.202Z,10908
2022-10-05T06:30:12.824Z,11128
2022-10-05T06:31:13.462Z,11320
2022-10-05T06:32:14.060Z,11320
2022-10-05T06:33:14.663Z,11124
2022-10-05T06:34:15.268Z,11084
2022-10-05T06:35:15.860Z,10980
2022-10-05T06:36:16.458Z,10876
2022-10-05T06:37:17.059Z,10564
2022-10-05T06:38:17.665Z,10044
2022-10-05T06:39:18.254Z,9764
2022-10-05T06:40:18.854Z,9768
2022-10-05T06:41:19.449Z,9524
2022-10-05T06:42:20.051Z,9760
2022-10-05T06:43:20.659Z,10020
2022-10-05T06:44:21.243Z,10012
2022-10-05T06:45:21.844Z,9756
2022-10-05T06:46:22.513Z,9864
2022-10-05T06:47:23.076Z,10268
2022-10-05T06:48:23.676Z,10696
2022-10-05T06:49:24.294Z,11432
2022-10-05T06:50:24.896Z,11588
2022-10-05T06:51:25.514Z,12084
2022-10-05T06:52:26.112Z,11800
2022-10-05T06:53:26.711Z,11476
2022-10-05T06:54:27.310Z,11184
2022-10-05T06:55:27.910Z,11184
2022-10-05T06:56:28.513Z,11236
2022-10-05T06:57:29.115Z,10848
2022-10-05T06:58:29.710Z,9604
2022-10-05T06:59:30.310Z,8568
2022-10-05T07:00:30.907Z,7444
2022-10-05T07:01:31.576Z,6796
2022-10-05T07:02:32.206Z,7036
2022-10-05T07:03:32.765Z,7292
2022-10-05T07:04:36.752Z,7856
2022-10-05T07:05:34.953Z,7700
2022-10-05T07:06:35.552Z,6640
2022-10-05T07:07:36.150Z,6384
2022-10-05T07:08:36.752Z,6212
2022-10-05T07:09:37.349Z,6216
2022-10-05T07:10:37.950Z,6936
2022-10-05T07:11:38.550Z,8456
2022-10-05T07:12:39.149Z,10516
2022-10-05T07:13:39.751Z,11224
2022-10-05T07:14:40.349Z,11736
2022-10-05T07:15:40.950Z,10140
2022-10-05T07:16:41.630Z,7536
2022-10-05T07:17:42.272Z,6976
2022-10-05T07:18:42.869Z,7796
2022-10-05T07:19:43.470Z,10100
2022-10-05T07:20:48.899Z,12188
2022-10-05T07:21:45.955Z,11964
2022-10-05T07:22:46.712Z,11568
2022-10-05T07:23:47.313Z,10516
2022-10-05T07:24:47.912Z,11132
2022-10-05T07:25:48.514Z,14608
2022-10-05T07:26:49.427Z,15972
2022-10-05T07:27:51.777Z,16788
2022-10-05T07:28:51.856Z,17260
2022-10-05T07:29:52.458Z,16808
2022-10-05T07:30:53.115Z,17284
2022-10-05T07:31:53.672Z,18208
2022-10-05T07:32:54.271Z,17676
2022-10-05T07:33:54.871Z,17052
2022-10-05T07:34:55.468Z,18208
2022-10-05T07:35:56.073Z,19104
2022-10-05T07:36:57.056Z,18720
2022-10-05T07:37:57.986Z,18752
2022-10-05T07:38:58.537Z,18656
2022-10-05T07:40:00.899Z,19616
2022-10-05T07:41:00.749Z,19776
2022-10-05T07:42:01.369Z,19840
2022-10-05T07:43:01.969Z,19968
2022-10-05T07:44:03.409Z,20128
2022-10-05T07:45:04.161Z,20672
2022-10-05T07:46:04.853Z,21184
2022-10-05T07:47:05.477Z,20960
2022-10-05T07:48:06.077Z,18816
2022-10-05T07:49:06.680Z,18624
2022-10-05T07:50:07.280Z,18848
2022-10-05T07:51:07.878Z,20864
2022-10-05T07:52:08.481Z,21952
2022-10-05T07:53:09.080Z,22208
2022-10-05T07:54:09.684Z,23040
2022-10-05T07:55:10.280Z,23808
2022-10-05T07:56:10.876Z,23040
2022-10-05T07:57:11.477Z,23552
2022-10-05T07:58:12.079Z,23424
2022-10-05T07:59:12.676Z,22816
2022-10-05T08:00:13.276Z,23008
2022-10-05T08:01:13.876Z,22656
2022-10-05T08:02:14.556Z,22080
2022-10-05T08:03:15.182Z,21632
2022-10-05T08:04:15.758Z,21152
2022-10-05T08:05:16.360Z,21408
2022-10-05T08:06:16.959Z,21472
2022-10-05T08:07:17.616Z,21888
2022-10-05T08:08:19.793Z,20800
2022-10-05T08:09:19.768Z,21120
2022-10-05T08:10:20.369Z,20608
2022-10-05T08:11:20.994Z,20256
2022-10-05T08:12:21.592Z,20032
2022-10-05T08:13:22.195Z,19584
2022-10-05T08:14:22.811Z,19552
2022-10-05T08:15:23.410Z,19712
2022-10-05T08:16:24.066Z,18976
2022-10-05T08:17:25.707Z,18944
2022-10-05T08:18:26.243Z,19200
2022-10-05T08:19:26.853Z,19008
2022-10-05T08:20:27.444Z,18656
2022-10-05T08:21:28.040Z,19008
2022-10-05T08:22:28.643Z,19520
2022-10-05T08:23:29.241Z,18976
2022-10-05T08:24:29.841Z,18656
2022-10-05T08:25:30.439Z,19328
2022-10-05T08:26:31.040Z,20000
2022-10-05T08:27:31.641Z,19840
2022-10-05T08:28:32.280Z,18240
2022-10-05T08:29:32.839Z,16772
2022-10-05T08:30:33.439Z,16252
2022-10-05T08:31:34.125Z,15660
2022-10-05T08:32:34.684Z,14192
2022-10-05T08:33:35.305Z,13940
2022-10-05T08:34:35.904Z,13980
2022-10-05T08:35:36.504Z,16116
2022-10-05T08:36:37.123Z,17352
2022-10-05T08:37:37.719Z,15752
2022-10-05T08:38:38.332Z,14024
2022-10-05T08:39:38.941Z,17204
2022-10-05T08:40:39.562Z,18176
2022-10-05T08:41:40.163Z,18336
2022-10-05T08:42:40.764Z,18208
2022-10-05T08:43:41.362Z,18176
2022-10-05T08:44:41.964Z,18944
2022-10-05T08:45:42.598Z,19072
2022-10-05T08:46:43.162Z,19712
2022-10-05T08:47:43.781Z,19456
2022-10-05T08:48:44.400Z,19776
2022-10-05T08:49:44.999Z,19264
2022-10-05T08:50:45.599Z,19712
2022-10-05T08:51:46.504Z,19296
2022-10-05T08:52:47.182Z,19712
2022-10-05T08:53:47.782Z,20064
2022-10-05T08:54:48.383Z,20288
2022-10-05T08:55:48.989Z,20640
2022-10-05T08:56:49.606Z,20640
2022-10-05T08:57:50.205Z,20832
2022-10-05T08:58:50.809Z,20640
2022-10-05T08:59:51.406Z,20416
2022-10-05T09:00:52.008Z,19552
2022-10-05T09:01:52.642Z,19392
2022-10-05T09:02:53.270Z,18912
2022-10-05T09:03:53.819Z,18112
2022-10-05T09:04:54.422Z,17632
2022-10-05T09:05:55.020Z,17324
2022-10-05T09:06:55.622Z,16852
2022-10-05T09:07:56.223Z,16652
2022-10-05T09:08:56.825Z,16372
2022-10-05T09:10:01.517Z,15444
2022-10-05T09:10:59.016Z,15520
2022-10-05T09:11:59.640Z,15252
2022-10-05T09:13:00.239Z,14828
2022-10-05T09:14:00.839Z,14288
2022-10-05T09:15:24.348Z,13780
2022-10-05T09:16:02.973Z,13944
2022-10-05T09:17:03.538Z,14016
2022-10-05T09:18:04.141Z,13236
2022-10-05T09:19:04.763Z,13120
2022-10-05T09:20:05.360Z,12532
2022-10-05T09:21:05.966Z,11720
2022-10-05T09:22:06.589Z,11188
2022-10-05T09:23:07.209Z,10768
2022-10-05T09:24:07.825Z,10304
2022-10-05T09:25:08.441Z,9332
2022-10-05T09:26:09.022Z,9028
2022-10-05T09:27:09.621Z,9324
2022-10-05T09:28:10.238Z,8664
2022-10-05T09:29:10.818Z,8684
2022-10-05T09:30:11.483Z,8736
2022-10-05T09:31:12.040Z,9188
2022-10-05T09:32:16.330Z,9312
2022-10-05T09:33:14.204Z,9380
2022-10-05T09:34:14.823Z,9764
2022-10-05T09:35:15.421Z,9692
2022-10-05T09:36:16.021Z,9564
2022-10-05T09:37:16.619Z,9828
2022-10-05T09:38:17.220Z,10060
2022-10-05T09:39:17.818Z,10628
2022-10-05T09:40:18.487Z,10564
2022-10-05T09:41:19.054Z,11352
2022-10-05T09:42:19.654Z,11700
2022-10-05T09:43:20.254Z,10504
2022-10-05T09:44:20.870Z,10284
2022-10-05T09:45:21.759Z,9924
2022-10-05T09:46:22.233Z,11256
2022-10-05T09:47:22.848Z,13460
2022-10-05T09:48:23.451Z,13776
2022-10-05T09:49:24.051Z,15068
2022-10-05T09:50:24.651Z,16668
2022-10-05T09:51:25.250Z,18304
2022-10-05T09:52:25.870Z,19616
2022-10-05T09:53:26.469Z,20320
2022-10-05T09:54:27.101Z,21088
2022-10-05T09:55:27.691Z,20960
2022-10-05T09:57:28.897Z,21472
2022-10-05T09:58:29.498Z,22240
2022-10-05T09:59:30.098Z,23040
2022-10-05T10:00:30.715Z,25184
2022-10-05T10:01:34.285Z,24896
2022-10-05T10:02:32.866Z,28416
2022-10-05T10:03:33.561Z,27296
2022-10-05T10:04:34.120Z,30048
2022-10-05T10:05:34.717Z,35136
2022-10-05T10:06:35.323Z,36352
2022-10-05T10:07:35.920Z,38912
2022-10-05T10:08:36.541Z,36992
2022-10-05T10:09:38.792Z,35072
2022-10-05T10:10:38.738Z,35680
2022-10-05T10:11:39.360Z,35424
2022-10-05T10:12:39.978Z,33920
2022-10-05T10:13:40.578Z,33344
2022-10-05T10:14:41.184Z,39232
2022-10-05T10:15:41.825Z,45056
2022-10-05T10:16:42.399Z,35936
2022-10-05T10:17:42.999Z,43456
2022-10-05T10:18:43.603Z,43616
2022-10-05T10:19:44.204Z,44320
2022-10-05T10:20:44.823Z,49792
2022-10-05T10:21:45.764Z,48352
2022-10-05T10:22:46.533Z,50400
2022-10-05T10:23:47.130Z,50976
2022-10-05T10:24:47.752Z,63296
2022-10-05T10:25:48.351Z,53664
2022-10-05T10:26:48.952Z,60864
2022-10-05T10:27:52.436Z,43200
2022-10-05T10:28:50.168Z,41376
2022-10-05T10:29:50.769Z,82656
2022-10-05T10:30:51.452Z,80832
2022-10-05T10:31:52.007Z,92096
2022-10-05T10:32:52.627Z,60000
2022-10-05T10:33:53.227Z,82240
2022-10-05T10:34:53.831Z,112864
2022-10-05T10:35:54.434Z,86752
2022-10-05T10:36:55.033Z,85184
2022-10-05T10:37:55.634Z,77280
2022-10-05T10:38:56.235Z,87616
2022-10-05T10:39:56.836Z,77408
2022-10-05T10:40:57.452Z,67488
2022-10-05T10:41:58.039Z,68704
2022-10-05T10:42:58.643Z,68416
2022-10-05T10:43:59.243Z,116192
2022-10-05T10:44:59.846Z,81696
2022-10-05T10:46:00.504Z,97056
2022-10-05T10:47:01.172Z,67616
2022-10-05T10:48:01.761Z,75488
2022-10-05T10:49:02.366Z,75200
2022-10-05T10:50:02.963Z,89344
2022-10-05T10:51:03.567Z,86720
2022-10-05T10:52:04.170Z,93888
2022-10-05T10:53:04.770Z,96768
2022-10-05T10:54:05.373Z,106176
2022-10-05T10:55:05.976Z,100224
2022-10-05T10:56:06.597Z,97920
2022-10-05T10:57:07.199Z,94208
2022-10-05T10:58:11.198Z,94816
2022-10-05T10:59:09.397Z,102848
2022-10-05T11:00:09.998Z,107360
2022-10-05T11:01:10.604Z,101376
2022-10-05T11:02:11.252Z,115424
2022-10-05T11:03:11.873Z,122432
2022-10-05T11:04:12.461Z,119168
2022-10-05T11:05:13.069Z,107776
2022-10-05T11:06:13.665Z,96896
2022-10-05T11:07:14.269Z,88512
2022-10-05T11:08:14.870Z,96480
2022-10-05T11:09:15.473Z,103296
2022-10-05T11:10:16.075Z,113792
2022-10-05T11:11:16.682Z,132640
2022-10-05T11:12:17.283Z,64704
2022-10-05T11:13:17.883Z,79200
2022-10-05T11:14:18.485Z,106176
2022-10-05T11:15:19.107Z,116672
2022-10-05T11:16:20.008Z,66976
2022-10-05T11:17:20.630Z,128224
2022-10-05T11:18:21.251Z,86464
2022-10-05T11:19:24.867Z,118752
2022-10-05T11:20:23.449Z,99200
2022-10-05T11:21:24.051Z,90592
2022-10-05T11:22:24.655Z,97952
2022-10-05T11:23:25.276Z,101504
2022-10-05T11:24:25.875Z,76832
2022-10-05T11:25:26.494Z,72576
2022-10-05T11:26:27.095Z,91872
2022-10-05T11:27:27.719Z,92704
2022-10-05T11:28:28.400Z,76928
2022-10-05T11:29:28.976Z,75232
2022-10-05T11:30:29.576Z,66368
2022-10-05T11:31:30.244Z,95104
2022-10-05T11:32:30.847Z,92192
2022-10-05T11:33:31.450Z,66560
2022-10-05T11:34:32.053Z,69216
2022-10-05T11:35:32.673Z,88800
2022-10-05T11:36:33.273Z,63520
2022-10-05T11:37:33.894Z,96704
2022-10-05T11:38:34.494Z,92384
2022-10-05T11:39:35.098Z,49760
2022-10-05T11:40:35.718Z,87872
2022-10-05T11:41:36.320Z,86528
2022-10-05T11:42:36.919Z,64128
2022-10-05T11:43:37.524Z,58752
2022-10-05T11:44:38.141Z,73248
2022-10-05T11:45:38.749Z,67456
2022-10-05T11:46:39.441Z,61216
2022-10-05T11:47:40.012Z,54880
2022-10-05T11:48:40.614Z,99520
2022-10-05T11:49:41.218Z,69600
2022-10-05T11:50:41.814Z,65920
2022-10-05T11:51:42.415Z,77056
2022-10-05T11:52:43.018Z,104800
2022-10-05T11:53:43.620Z,58176
2022-10-05T11:55:09.388Z,130368
2022-10-05T11:55:45.831Z,46784
2022-10-05T11:56:49.508Z,66400
2022-10-05T11:57:48.032Z,74880
2022-10-05T11:58:48.654Z,74176
2022-10-05T11:59:49.256Z,60128
2022-10-05T12:00:49.876Z,95648
2022-10-05T12:01:50.459Z,62880
2022-10-05T12:02:51.150Z,56768
2022-10-05T12:03:51.820Z,74432
2022-10-05T12:04:52.379Z,109472
2022-10-05T12:05:52.996Z,60832
2022-10-05T12:06:53.597Z,53824
2022-10-05T12:07:54.220Z,102208
2022-10-05T12:08:54.821Z,52800
2022-10-05T12:09:55.425Z,46720
2022-10-05T12:10:56.024Z,106368
2022-10-05T12:11:58.065Z,52128
2022-10-05T12:12:58.459Z,112288
2022-10-05T12:13:59.079Z,103584
2022-10-05T12:14:59.678Z,89952
2022-10-05T12:16:00.343Z,55296
2022-10-05T12:17:00.894Z,88544
2022-10-05T12:18:01.497Z,90048
2022-10-05T12:19:02.098Z,96864
2022-10-05T12:20:02.702Z,77024
2022-10-05T12:21:03.305Z,83680
2022-10-05T12:22:03.908Z,57440
2022-10-05T12:23:04.508Z,97600
2022-10-05T12:24:05.110Z,47360
2022-10-05T12:25:05.712Z,119424
2022-10-05T12:26:06.382Z,123840
2022-10-05T12:27:06.933Z,119200
2022-10-05T12:28:07.632Z,42944
2022-10-05T12:29:08.226Z,100256
2022-10-05T12:30:08.826Z,95840
2022-10-05T12:31:09.480Z,91328
2022-10-05T12:32:10.081Z,58496
2022-10-05T12:33:10.682Z,96608
2022-10-05T12:34:11.286Z,116864
2022-10-05T12:35:11.886Z,111616
2022-10-05T12:36:12.509Z,106784
2022-10-05T12:37:13.110Z,101600
2022-10-05T12:38:13.715Z,99776
2022-10-05T12:39:14.313Z,104224
2022-10-05T12:40:14.916Z,106784
2022-10-05T12:41:15.536Z,108800
2022-10-05T12:42:16.156Z,103584
2022-10-05T12:43:16.754Z,36448
2022-10-05T12:44:17.357Z,122624
2022-10-05T12:45:17.961Z,129920
2022-10-05T12:46:18.565Z,120320
2022-10-05T12:47:19.185Z,99872
2022-10-05T12:48:19.786Z,85824
2022-10-05T12:49:20.387Z,81856
2022-10-05T12:50:21.008Z,86912
2022-10-05T12:51:21.608Z,98624
2022-10-05T12:52:22.230Z,110304
2022-10-05T12:53:22.835Z,110784
2022-10-05T12:54:23.435Z,100416
2022-10-05T12:55:24.037Z,89120
2022-10-05T12:56:24.639Z,71744
2022-10-05T12:57:25.262Z,67136
2022-10-05T12:58:25.863Z,79456
2022-10-05T12:59:26.477Z,91392
2022-10-05T13:00:27.089Z,107008
2022-10-05T13:01:27.690Z,120000
2022-10-05T13:02:28.294Z,114464
2022-10-05T13:03:28.901Z,97632
2022-10-05T13:04:29.520Z,86784
2022-10-05T13:05:30.140Z,85696
2022-10-05T13:06:30.744Z,95648
2022-10-05T13:07:31.366Z,103936
2022-10-05T13:08:31.970Z,102400
2022-10-05T13:09:32.569Z,94624
2022-10-05T13:10:33.171Z,94048
2022-10-05T13:11:33.849Z,97376
2022-10-05T13:12:34.387Z,97216
2022-10-05T13:13:34.987Z,105728
2022-10-05T13:14:35.590Z,108544
2022-10-05T13:15:36.192Z,109248
2022-10-05T13:16:36.814Z,112288
2022-10-05T13:17:37.403Z,115328
2022-10-05T13:18:38.006Z,104896
2022-10-05T13:19:38.608Z,96512
2022-10-05T13:20:39.209Z,93024
2022-10-05T13:21:40.887Z,97888
2022-10-05T13:22:41.409Z,106592
2022-10-05T13:23:42.011Z,106240
2022-10-05T13:24:42.613Z,87776
2022-10-05T13:25:43.213Z,65376
2022-10-05T13:26:43.820Z,53824
2022-10-05T13:27:44.418Z,61056
2022-10-05T13:28:45.021Z,81600
2022-10-05T13:29:45.621Z,94432
2022-10-05T13:30:46.224Z,90048
2022-10-05T13:31:46.885Z,74848
2022-10-05T13:32:47.459Z,62560
2022-10-05T13:33:48.063Z,64736
2022-10-05T13:34:48.664Z,83552
2022-10-05T13:35:49.266Z,101344
2022-10-05T13:36:49.871Z,101408
2022-10-05T13:37:50.493Z,93952
2022-10-05T13:38:51.095Z,88224
2022-10-05T13:39:51.719Z,86816
2022-10-05T13:40:52.321Z,99136
2022-10-05T13:41:52.922Z,111776
2022-10-05T13:42:53.526Z,112864
2022-10-05T13:43:54.129Z,108448
2022-10-05T13:44:54.753Z,103360